Terminal Aerodrome Forecast
Issued by NWS Atlanta, GA

Home | Current Version | Previous Version | Text Only | Print | Product List | Glossary On
Versions: 1 2 3 4 5 6 7 8 9 10 11 12 13 14 15 16 17
000
FTUS42 KFFC 241328 AAA
TAFMCN
TAF AMD
KMCN 241328Z 2413/2512 VRB04KT P6SM FEW040 BKN150
      TEMPO 2413/2415 BKN010
     FM241500 26007KT P6SM SCT025 SCT040
     FM241700 25010KT P6SM BKN040
     FM250900 27010KT P6SM FEW030=

USA.gov is the U.S. government's official web portal to all federal, state and local government web resources and services.